sensor_id;sensor_type;location;lat;lon;timestamp;pressure;altitude;pressure_sealevel;temperature;humidity
48390;BME280;34643;47.964;7.982;2023-10-08T00:00:28;97700.81;;;19.03;51.13
48390;BME280;34643;47.964;7.982;2023-10-08T00:05:46;97712.16;;;19.03;51.04
48390;BME280;34643;47.964;7.982;2023-10-08T00:10:46;97707.00;;;19.02;51.09
48390;BME280;34643;47.964;7.982;2023-10-08T00:15:47;97705.22;;;19.02;51.16
48390;BME280;34643;47.964;7.982;2023-10-08T00:20:54;97704.41;;;19.02;51.17
48390;BME280;34643;47.964;7.982;2023-10-08T00:25:55;97707.00;;;19.02;51.29
48390;BME280;34643;47.964;7.982;2023-10-08T00:30:55;97707.00;;;19.02;51.22
48390;BME280;34643;47.964;7.982;2023-10-08T00:35:55;97707.09;;;19.00;51.22
48390;BME280;34643;47.964;7.982;2023-10-08T00:40:56;97713.16;;;19.00;51.24
48390;BME280;34643;47.964;7.982;2023-10-08T00:45:57;97698.34;;;19.01;51.38
48390;BME280;34643;47.964;7.982;2023-10-08T00:50:59;97683.56;;;19.00;51.46
48390;BME280;34643;47.964;7.982;2023-10-08T00:56:18;97688.78;;;19.00;51.53
48390;BME280;34643;47.964;7.982;2023-10-08T01:01:19;97686.19;;;19.00;51.48
48390;BME280;34643;47.964;7.982;2023-10-08T01:06:21;97683.56;;;19.00;51.54
48390;BME280;34643;47.964;7.982;2023-10-08T01:11:23;97674.03;;;18.99;51.46
48390;BME280;34643;47.964;7.982;2023-10-08T01:16:45;97671.41;;;18.99;51.37
48390;BME280;34643;47.964;7.982;2023-10-08T01:21:47;97654.88;;;18.98;51.47
48390;BME280;34643;47.964;7.982;2023-10-08T01:26:47;97661.06;;;18.97;51.48
48390;BME280;34643;47.964;7.982;2023-10-08T01:31:48;97658.31;;;18.99;51.59
48390;BME280;34643;47.964;7.982;2023-10-08T01:36:53;97659.28;;;18.98;51.69
48390;BME280;34643;47.964;7.982;2023-10-08T01:41:53;97652.38;;;18.97;51.76
48390;BME280;34643;47.964;7.982;2023-10-08T01:46:55;97660.13;;;18.98;51.67
48390;BME280;34643;47.964;7.982;2023-10-08T01:51:59;97654.97;;;18.97;51.67
48390;BME280;34643;47.964;7.982;2023-10-08T01:57:05;97654.97;;;18.97;51.61
48390;BME280;34643;47.964;7.982;2023-10-08T02:02:09;97648.00;;;18.97;51.70
48390;BME280;34643;47.964;7.982;2023-10-08T02:07:09;97651.53;;;18.96;51.77
48390;BME280;34643;47.964;7.982;2023-10-08T02:12:12;97649.75;;;18.97;51.72
48390;BME280;34643;47.964;7.982;2023-10-08T02:17:14;97657.59;;;18.97;51.79
48390;BME280;34643;47.964;7.982;2023-10-08T02:22:14;97654.16;;;18.96;51.72
48390;BME280;34643;47.964;7.982;2023-10-08T02:27:14;97658.56;;;18.96;51.65
48390;BME280;34643;47.964;7.982;2023-10-08T02:32:15;97657.69;;;18.95;51.78
48390;BME280;34643;47.964;7.982;2023-10-08T02:37:15;97652.47;;;18.95;51.80
48390;BME280;34643;47.964;7.982;2023-10-08T02:42:16;97656.88;;;18.95;51.75
48390;BME280;34643;47.964;7.982;2023-10-08T02:47:16;97646.41;;;18.95;51.81
48390;BME280;34643;47.964;7.982;2023-10-08T02:52:20;97652.59;;;18.94;51.84
48390;BME280;34643;47.964;7.982;2023-10-08T02:57:21;97643.06;;;18.93;51.86
48390;BME280;34643;47.964;7.982;2023-10-08T03:02:21;97648.28;;;18.93;51.90
48390;BME280;34643;47.964;7.982;2023-10-08T03:07:22;97645.66;;;18.93;51.90
48390;BME280;34643;47.964;7.982;2023-10-08T03:12:24;97641.38;;;18.92;51.82
48390;BME280;34643;47.964;7.982;2023-10-08T03:17:25;97636.13;;;18.92;51.97
48390;BME280;34643;47.964;7.982;2023-10-08T03:22:26;97637.81;;;18.93;51.92
48390;BME280;34643;47.964;7.982;2023-10-08T03:27:33;97638.75;;;18.92;52.05
48390;BME280;34643;47.964;7.982;2023-10-08T03:32:44;97642.31;;;18.91;51.91
48390;BME280;34643;47.964;7.982;2023-10-08T03:37:45;97639.72;;;18.91;52.06
48390;BME280;34643;47.964;7.982;2023-10-08T03:42:55;97633.66;;;18.90;52.00
48390;BME280;34643;47.964;7.982;2023-10-08T03:47:56;97632.78;;;18.90;52.03
48390;BME280;34643;47.964;7.982;2023-10-08T03:53:06;97637.19;;;18.89;52.05
48390;BME280;34643;47.964;7.982;2023-10-08T03:58:11;97633.75;;;18.89;51.96
48390;BME280;34643;47.964;7.982;2023-10-08T04:03:27;97633.00;;;18.87;51.87
48390;BME280;34643;47.964;7.982;2023-10-08T04:08:44;97633.00;;;18.87;52.05
48390;BME280;34643;47.964;7.982;2023-10-08T04:13:55;97636.47;;;18.87;51.93
48390;BME280;34643;47.964;7.982;2023-10-08T04:18:55;97629.44;;;18.88;52.06
48390;BME280;34643;47.964;7.982;2023-10-08T04:23:56;97636.47;;;18.87;51.92
48390;BME280;34643;47.964;7.982;2023-10-08T04:28:58;97631.31;;;18.86;52.02
48390;BME280;34643;47.964;7.982;2023-10-08T04:33:58;97631.31;;;18.86;51.92
48390;BME280;34643;47.964;7.982;2023-10-08T04:39:00;97631.31;;;18.86;52.10
48390;BME280;34643;47.964;7.982;2023-10-08T04:44:13;97643.47;;;18.87;52.14
48390;BME280;34643;47.964;7.982;2023-10-08T04:49:16;97634.88;;;18.85;52.06
48390;BME280;34643;47.964;7.982;2023-10-08T04:54:26;97628.72;;;18.86;52.00
48390;BME280;34643;47.964;7.982;2023-10-08T04:59:32;97629.63;;;18.85;51.96
48390;BME280;34643;47.964;7.982;2023-10-08T05:04:33;97628.81;;;18.84;52.13
48390;BME280;34643;47.964;7.982;2023-10-08T05:09:45;97633.22;;;18.84;52.13
48390;BME280;34643;47.964;7.982;2023-10-08T05:14:52;97632.34;;;18.83;51.99
48390;BME280;34643;47.964;7.982;2023-10-08T05:20:09;97629.75;;;18.83;51.99
48390;BME280;34643;47.964;7.982;2023-10-08T05:25:28;97623.69;;;18.83;51.93
48390;BME280;34643;47.964;7.982;2023-10-08T05:30:48;97631.53;;;18.83;52.08
48390;BME280;34643;47.964;7.982;2023-10-08T05:36:11;97619.41;;;18.82;52.02
48390;BME280;34643;47.964;7.982;2023-10-08T05:41:18;97615.91;;;18.81;52.03
48390;BME280;34643;47.964;7.982;2023-10-08T05:46:28;97619.41;;;18.82;52.20
48390;BME280;34643;47.964;7.982;2023-10-08T05:51:28;97622.09;;;18.80;52.13
48390;BME280;34643;47.964;7.982;2023-10-08T05:56:47;97616.84;;;18.80;51.95
48390;BME280;34643;47.964;7.982;2023-10-08T06:02:06;97625.47;;;18.82;51.99
48390;BME280;34643;47.964;7.982;2023-10-08T06:07:26;97628.16;;;18.80;52.24
48390;BME280;34643;47.964;7.982;2023-10-08T06:12:33;97624.63;;;18.82;52.27
48390;BME280;34643;47.964;7.982;2023-10-08T06:17:45;97626.28;;;18.83;52.18
48390;BME280;34643;47.964;7.982;2023-10-08T06:23:04;97637.59;;;18.83;52.05
48390;BME280;34643;47.964;7.982;2023-10-08T06:28:07;97631.53;;;18.83;52.05
48390;BME280;34643;47.964;7.982;2023-10-08T06:33:09;97633.22;;;18.84;51.97
48390;BME280;34643;47.964;7.982;2023-10-08T06:38:10;97639.28;;;18.84;52.20
48390;BME280;34643;47.964;7.982;2023-10-08T06:43:11;97642.63;;;18.86;52.56
48390;BME280;34643;47.964;7.982;2023-10-08T06:48:14;97660.09;;;18.86;52.44
48390;BME280;34643;47.964;7.982;2023-10-08T06:53:20;97665.22;;;18.87;52.33
48390;BME280;34643;47.964;7.982;2023-10-08T06:58:25;97673.38;;;18.83;51.99
48390;BME280;34643;47.964;7.982;2023-10-08T07:03:25;97675.00;;;18.71;50.91
48390;BME280;34643;47.964;7.982;2023-10-08T07:08:27;97686.66;;;18.52;50.41
48390;BME280;34643;47.964;7.982;2023-10-08T07:13:29;97692.41;;;18.57;50.49
48390;BME280;34643;47.964;7.982;2023-10-08T07:18:30;97696.59;;;18.60;50.43
48390;BME280;34643;47.964;7.982;2023-10-08T07:23:33;97695.47;;;18.64;50.71
48390;BME280;34643;47.964;7.982;2023-10-08T07:28:34;97687.53;;;18.66;50.52
48390;BME280;34643;47.964;7.982;2023-10-08T07:33:36;97691.91;;;18.65;50.15
48390;BME280;34643;47.964;7.982;2023-10-08T07:38:36;97691.91;;;18.65;50.09
48390;BME280;34643;47.964;7.982;2023-10-08T07:43:37;97691.38;;;18.60;49.57
48390;BME280;34643;47.964;7.982;2023-10-08T07:48:37;97685.94;;;18.63;49.77
48390;BME280;34643;47.964;7.982;2023-10-08T07:53:43;97691.00;;;18.66;49.94
48390;BME280;34643;47.964;7.982;2023-10-08T07:58:43;97696.03;;;18.69;49.30
48390;BME280;34643;47.964;7.982;2023-10-08T08:03:43;97698.53;;;18.71;49.68
48390;BME280;34643;47.964;7.982;2023-10-08T08:08:46;97685.34;;;18.72;49.84
48390;BME280;34643;47.964;7.982;2023-10-08T08:13:46;97698.22;;;18.75;49.87
48390;BME280;34643;47.964;7.982;2023-10-08T08:18:48;97709.41;;;18.77;49.80
48390;BME280;34643;47.964;7.982;2023-10-08T08:23:57;97696.25;;;18.79;50.00
48390;BME280;34643;47.964;7.982;2023-10-08T08:29:05;97699.69;;;18.79;50.04
48390;BME280;34643;47.964;7.982;2023-10-08T08:34:09;97697.94;;;18.80;50.26
48390;BME280;34643;47.964;7.982;2023-10-08T08:39:17;97696.16;;;18.80;50.34
48390;BME280;34643;47.964;7.982;2023-10-08T08:44:36;97697.88;;;18.82;50.41
48390;BME280;34643;47.964;7.982;2023-10-08T08:49:45;97696.00;;;18.84;50.50
48390;BME280;34643;47.964;7.982;2023-10-08T08:54:45;97696.81;;;18.84;50.39
48390;BME280;34643;47.964;7.982;2023-10-08T08:59:55;97685.44;;;18.85;50.65
48390;BME280;34643;47.964;7.982;2023-10-08T09:04:56;97686.16;;;18.87;50.73
48390;BME280;34643;47.964;7.982;2023-10-08T09:09:57;97685.34;;;18.87;51.06
48390;BME280;34643;47.964;7.982;2023-10-08T09:15:01;97691.50;;;18.86;51.11
48390;BME280;34643;47.964;7.982;2023-10-08T09:20:03;97694.09;;;18.86;51.11
48390;BME280;34643;47.964;7.982;2023-10-08T09:25:07;97691.59;;;18.84;50.96
48390;BME280;34643;47.964;7.982;2023-10-08T09:30:07;97696.00;;;18.84;50.71
48390;BME280;34643;47.964;7.982;2023-10-08T09:35:09;97700.34;;;18.83;50.55
48390;BME280;34643;47.964;7.982;2023-10-08T09:40:11;97696.00;;;18.84;50.74
48390;BME280;34643;47.964;7.982;2023-10-08T09:45:11;97699.34;;;18.86;50.79
48390;BME280;34643;47.964;7.982;2023-10-08T09:50:12;97702.78;;;18.86;51.02
48390;BME280;34643;47.964;7.982;2023-10-08T09:55:12;97701.75;;;18.89;51.00
48390;BME280;34643;47.964;7.982;2023-10-08T10:00:14;97703.50;;;18.88;51.11
48390;BME280;34643;47.964;7.982;2023-10-08T10:05:27;97707.91;;;18.88;51.49
48390;BME280;34643;47.964;7.982;2023-10-08T10:10:29;97717.56;;;18.87;51.40
48390;BME280;34643;47.964;7.982;2023-10-08T10:15:33;97721.81;;;18.88;51.03
48390;BME280;34643;47.964;7.982;2023-10-08T10:20:38;97730.53;;;18.89;50.93
48390;BME280;34643;47.964;7.982;2023-10-08T10:25:38;97726.97;;;18.90;50.93
48390;BME280;34643;47.964;7.982;2023-10-08T10:30:44;97734.91;;;18.88;50.96
48390;BME280;34643;47.964;7.982;2023-10-08T10:35:51;97726.97;;;18.90;50.80
48390;BME280;34643;47.964;7.982;2023-10-08T10:40:51;97733.78;;;18.92;50.93
48390;BME280;34643;47.964;7.982;2023-10-08T10:45:58;97745.06;;;18.93;50.78
48390;BME280;34643;47.964;7.982;2023-10-08T10:50:59;97748.53;;;18.93;51.07
48390;BME280;34643;47.964;7.982;2023-10-08T10:56:05;97743.28;;;18.93;50.78
48390;BME280;34643;47.964;7.982;2023-10-08T11:01:09;97755.34;;;18.96;50.81
48390;BME280;34643;47.964;7.982;2023-10-08T11:06:25;97750.84;;;18.98;50.01
48390;BME280;34643;47.964;7.982;2023-10-08T11:11:26;97756.81;;;19.00;49.76
48390;BME280;34643;47.964;7.982;2023-10-08T11:16:29;97740.28;;;18.99;50.08
48390;BME280;34643;47.964;7.982;2023-10-08T11:21:32;97737.66;;;18.99;50.25
48390;BME280;34643;47.964;7.982;2023-10-08T11:26:37;97719.47;;;18.98;50.43
48390;BME280;34643;47.964;7.982;2023-10-08T11:31:54;97727.31;;;18.98;50.44
48390;BME280;34643;47.964;7.982;2023-10-08T11:36:54;97722.06;;;18.98;50.63
48390;BME280;34643;47.964;7.982;2023-10-08T11:42:02;97725.53;;;18.98;50.57
48390;BME280;34643;47.964;7.982;2023-10-08T11:47:04;97714.22;;;18.98;50.68
48390;BME280;34643;47.964;7.982;2023-10-08T11:52:21;97711.50;;;18.99;50.68
48390;BME280;34643;47.964;7.982;2023-10-08T11:57:22;97708.03;;;18.99;50.81
48390;BME280;34643;47.964;7.982;2023-10-08T12:02:22;97701.88;;;19.00;50.85
48390;BME280;34643;47.964;7.982;2023-10-08T12:07:22;97705.41;;;18.99;50.84
48390;BME280;34643;47.964;7.982;2023-10-08T12:12:27;97701.88;;;19.00;50.79
48390;BME280;34643;47.964;7.982;2023-10-08T12:17:28;97690.47;;;19.01;50.99
48390;BME280;34643;47.964;7.982;2023-10-08T12:22:37;97684.38;;;19.00;50.93
48390;BME280;34643;47.964;7.982;2023-10-08T12:27:37;97681.69;;;19.02;51.06
48390;BME280;34643;47.964;7.982;2023-10-08T12:32:39;97676.44;;;19.02;50.98
48390;BME280;34643;47.964;7.982;2023-10-08T12:37:42;97674.66;;;19.03;51.00
48390;BME280;34643;47.964;7.982;2023-10-08T12:42:44;97670.28;;;19.03;51.17
48390;BME280;34643;47.964;7.982;2023-10-08T12:47:44;97659.72;;;19.05;51.27
48390;BME280;34643;47.964;7.982;2023-10-08T12:52:46;97658.84;;;19.04;51.31
48390;BME280;34643;47.964;7.982;2023-10-08T12:57:56;97652.69;;;19.05;51.28
48390;BME280;34643;47.964;7.982;2023-10-08T13:03:04;97651.88;;;19.05;51.33
48390;BME280;34643;47.964;7.982;2023-10-08T13:08:07;97647.38;;;19.07;51.38
48390;BME280;34643;47.964;7.982;2023-10-08T13:13:10;97640.34;;;19.07;51.40
48390;BME280;34643;47.964;7.982;2023-10-08T13:18:13;97644.66;;;19.08;51.41
48390;BME280;34643;47.964;7.982;2023-10-08T13:23:13;97641.06;;;19.09;51.42
48390;BME280;34643;47.964;7.982;2023-10-08T13:28:14;97646.31;;;19.09;51.39
48390;BME280;34643;47.964;7.982;2023-10-08T13:33:14;97645.38;;;19.10;51.59
48390;BME280;34643;47.964;7.982;2023-10-08T13:38:15;97645.38;;;19.10;51.68
48390;BME280;34643;47.964;7.982;2023-10-08T13:43:16;97638.34;;;19.11;51.62
48390;BME280;34643;47.964;7.982;2023-10-08T13:48:17;97638.25;;;19.12;51.53
48390;BME280;34643;47.964;7.982;2023-10-08T13:53:18;97636.47;;;19.13;51.62
48390;BME280;34643;47.964;7.982;2023-10-08T13:58:20;97628.63;;;19.13;51.71
48390;BME280;34643;47.964;7.982;2023-10-08T14:03:22;97631.13;;;19.14;51.69
48390;BME280;34643;47.964;7.982;2023-10-08T14:08:22;97618.88;;;19.15;51.77
48390;BME280;34643;47.964;7.982;2023-10-08T14:13:24;97616.25;;;19.15;51.74
48390;BME280;34643;47.964;7.982;2023-10-08T14:18:27;97604.03;;;19.15;51.90
48390;BME280;34643;47.964;7.982;2023-10-08T14:23:29;97599.63;;;19.16;51.83
48390;BME280;34643;47.964;7.982;2023-10-08T14:28:33;97592.59;;;19.16;51.87
48390;BME280;34643;47.964;7.982;2023-10-08T14:33:51;97588.22;;;19.17;51.93
48390;BME280;34643;47.964;7.982;2023-10-08T14:39:19;97584.66;;;19.18;51.90
48390;BME280;34643;47.964;7.982;2023-10-08T14:44:38;97585.47;;;19.18;51.89
48390;BME280;34643;47.964;7.982;2023-10-08T14:49:38;97586.34;;;19.19;51.83
48390;BME280;34643;47.964;7.982;2023-10-08T14:54:38;97580.25;;;19.18;51.92
48390;BME280;34643;47.964;7.982;2023-10-08T14:59:39;97581.94;;;19.19;51.98
48390;BME280;34643;47.964;7.982;2023-10-08T15:04:40;97589.69;;;19.21;51.95
48390;BME280;34643;47.964;7.982;2023-10-08T15:09:40;97580.16;;;19.20;52.03
48390;BME280;34643;47.964;7.982;2023-10-08T15:14:41;97577.44;;;19.22;52.00
48390;BME280;34643;47.964;7.982;2023-10-08T15:19:42;97578.25;;;19.22;52.05
48390;BME280;34643;47.964;7.982;2023-10-08T15:24:42;97576.50;;;19.23;51.88
48390;BME280;34643;47.964;7.982;2023-10-08T15:29:43;97578.16;;;19.24;51.89
48390;BME280;34643;47.964;7.982;2023-10-08T15:34:44;97576.50;;;19.23;51.89
48390;BME280;34643;47.964;7.982;2023-10-08T15:39:44;97580.78;;;19.24;52.02
48390;BME280;34643;47.964;7.982;2023-10-08T15:44:46;97579.84;;;19.25;51.93
48390;BME280;34643;47.964;7.982;2023-10-08T15:49:47;97582.47;;;19.25;51.98
48390;BME280;34643;47.964;7.982;2023-10-08T15:54:48;97579.00;;;19.24;52.09
48390;BME280;34643;47.964;7.982;2023-10-08T15:59:49;97578.06;;;19.25;52.09
48390;BME280;34643;47.964;7.982;2023-10-08T16:04:50;97578.88;;;19.26;52.04
48390;BME280;34643;47.964;7.982;2023-10-08T16:09:50;97578.88;;;19.26;51.86
48390;BME280;34643;47.964;7.982;2023-10-08T16:14:50;97579.75;;;19.26;51.94
48390;BME280;34643;47.964;7.982;2023-10-08T16:19:51;97584.88;;;19.28;52.04
48390;BME280;34643;47.964;7.982;2023-10-08T16:24:51;97584.88;;;19.28;51.99
48390;BME280;34643;47.964;7.982;2023-10-08T16:29:52;97593.56;;;19.28;51.88
48390;BME280;34643;47.964;7.982;2023-10-08T16:34:56;97595.34;;;19.28;51.94
48390;BME280;34643;47.964;7.982;2023-10-08T16:39:56;97590.09;;;19.28;51.89
48390;BME280;34643;47.964;7.982;2023-10-08T16:44:56;97589.25;;;19.27;51.91
48390;BME280;34643;47.964;7.982;2023-10-08T16:49:57;97596.28;;;19.27;51.77
48390;BME280;34643;47.964;7.982;2023-10-08T16:54:58;97596.28;;;19.27;51.78
48390;BME280;34643;47.964;7.982;2023-10-08T16:59:58;97598.88;;;19.27;51.70
48390;BME280;34643;47.964;7.982;2023-10-08T17:04:58;97601.50;;;19.27;51.82
48390;BME280;34643;47.964;7.982;2023-10-08T17:09:58;97605.06;;;19.26;51.66
48390;BME280;34643;47.964;7.982;2023-10-08T17:14:59;97610.28;;;19.26;51.76
48390;BME280;34643;47.964;7.982;2023-10-08T17:20:00;97608.19;;;19.31;51.86
48390;BME280;34643;47.964;7.982;2023-10-08T17:25:03;97619.81;;;19.40;52.40
48390;BME280;34643;47.964;7.982;2023-10-08T17:30:06;97611.84;;;19.41;52.90
48390;BME280;34643;47.964;7.982;2023-10-08T17:35:06;97615.19;;;19.43;52.96
48390;BME280;34643;47.964;7.982;2023-10-08T17:40:09;97617.72;;;19.45;53.16
48390;BME280;34643;47.964;7.982;2023-10-08T17:45:12;97609.75;;;19.46;53.21
48390;BME280;34643;47.964;7.982;2023-10-08T17:50:14;97621.91;;;19.47;53.08
48390;BME280;34643;47.964;7.982;2023-10-08T17:55:16;97614.78;;;19.49;53.09
48390;BME280;34643;47.964;7.982;2023-10-08T18:00:18;97612.06;;;19.51;53.28
48390;BME280;34643;47.964;7.982;2023-10-08T18:05:21;97604.94;;;19.53;53.66
48390;BME280;34643;47.964;7.982;2023-10-08T18:10:26;97604.72;;;19.56;53.88
48390;BME280;34643;47.964;7.982;2023-10-08T18:15:28;97599.34;;;19.57;54.23
48390;BME280;34643;47.964;7.982;2023-10-08T18:20:28;97603.66;;;19.59;54.07
48390;BME280;34643;47.964;7.982;2023-10-08T18:25:33;97603.56;;;19.60;53.28
48390;BME280;34643;47.964;7.982;2023-10-08T18:30:34;97605.34;;;19.60;52.98
48390;BME280;34643;47.964;7.982;2023-10-08T18:35:35;97596.72;;;19.57;53.16
48390;BME280;34643;47.964;7.982;2023-10-08T18:40:36;97593.28;;;19.57;52.98
48390;BME280;34643;47.964;7.982;2023-10-08T18:45:39;97594.25;;;19.56;52.79
48390;BME280;34643;47.964;7.982;2023-10-08T18:50:39;97587.31;;;19.55;52.48
48390;BME280;34643;47.964;7.982;2023-10-08T18:55:40;97592.56;;;19.55;52.66
48390;BME280;34643;47.964;7.982;2023-10-08T19:00:40;97590.06;;;19.53;52.57
48390;BME280;34643;47.964;7.982;2023-10-08T19:05:42;97589.22;;;19.53;52.50
48390;BME280;34643;47.964;7.982;2023-10-08T19:10:42;97583.88;;;19.54;52.32
48390;BME280;34643;47.964;7.982;2023-10-08T19:15:42;97579.56;;;19.53;52.36
48390;BME280;34643;47.964;7.982;2023-10-08T19:20:45;97576.03;;;19.54;52.06
48390;BME280;34643;47.964;7.982;2023-10-08T19:25:48;97577.94;;;19.52;51.99
48390;BME280;34643;47.964;7.982;2023-10-08T19:30:50;97572.69;;;19.52;52.07
48390;BME280;34643;47.964;7.982;2023-10-08T19:35:55;97570.06;;;19.52;52.10
48390;BME280;34643;47.964;7.982;2023-10-08T19:40:56;97569.22;;;19.52;51.95
48390;BME280;34643;47.964;7.982;2023-10-08T19:45:57;97567.44;;;19.52;52.16
48390;BME280;34643;47.964;7.982;2023-10-08T19:50:57;97568.28;;;19.53;52.29
48390;BME280;34643;47.964;7.982;2023-10-08T19:55:58;97570.06;;;19.52;52.11
48390;BME280;34643;47.964;7.982;2023-10-08T20:01:00;97566.59;;;19.52;51.97
48390;BME280;34643;47.964;7.982;2023-10-08T20:06:00;97561.34;;;19.52;51.98
48390;BME280;34643;47.964;7.982;2023-10-08T20:11:01;97554.47;;;19.51;51.93
48390;BME280;34643;47.964;7.982;2023-10-08T20:16:02;97551.84;;;19.51;51.82
48390;BME280;34643;47.964;7.982;2023-10-08T20:21:05;97557.09;;;19.51;51.89
48390;BME280;34643;47.964;7.982;2023-10-08T20:26:12;97569.22;;;19.52;52.02
48390;BME280;34643;47.964;7.982;2023-10-08T20:31:20;97571.81;;;19.52;51.94
48390;BME280;34643;47.964;7.982;2023-10-08T20:36:21;97565.75;;;19.51;52.05
48390;BME280;34643;47.964;7.982;2023-10-08T20:41:21;97562.31;;;19.51;52.08
48390;BME280;34643;47.964;7.982;2023-10-08T20:46:21;97571.81;;;19.52;52.16
48390;BME280;34643;47.964;7.982;2023-10-08T20:51:22;97568.16;;;19.54;52.49
48390;BME280;34643;47.964;7.982;2023-10-08T20:56:23;97569.00;;;19.55;52.67
48390;BME280;34643;47.964;7.982;2023-10-08T21:01:24;97565.56;;;19.54;52.66
48390;BME280;34643;47.964;7.982;2023-10-08T21:06:24;97566.38;;;19.55;52.64
48390;BME280;34643;47.964;7.982;2023-10-08T21:11:24;97558.13;;;19.48;52.05
48390;BME280;34643;47.964;7.982;2023-10-08T21:16:25;97560.84;;;19.47;52.12
48390;BME280;34643;47.964;7.982;2023-10-08T21:21:25;97560.72;;;19.48;52.20
48390;BME280;34643;47.964;7.982;2023-10-08T21:26:25;97559.09;;;19.47;52.40
48390;BME280;34643;47.964;7.982;2023-10-08T21:31:26;97549.44;;;19.48;52.63
48390;BME280;34643;47.964;7.982;2023-10-08T21:36:26;97536.34;;;19.48;52.70
48390;BME280;34643;47.964;7.982;2023-10-08T21:41:26;97531.94;;;19.48;52.77
48390;BME280;34643;47.964;7.982;2023-10-08T21:46:27;97531.94;;;19.48;52.86
48390;BME280;34643;47.964;7.982;2023-10-08T21:51:27;97537.16;;;19.48;52.93
48390;BME280;34643;47.964;7.982;2023-10-08T21:56:28;97520.63;;;19.48;53.05
48390;BME280;34643;47.964;7.982;2023-10-08T22:01:35;97526.69;;;19.48;52.93
48390;BME280;34643;47.964;7.982;2023-10-08T22:06:36;97524.09;;;19.48;53.09
48390;BME280;34643;47.964;7.982;2023-10-08T22:11:38;97516.22;;;19.48;53.16
48390;BME280;34643;47.964;7.982;2023-10-08T22:16:42;97515.41;;;19.48;53.20
48390;BME280;34643;47.964;7.982;2023-10-08T22:21:42;97513.59;;;19.48;53.19
48390;BME280;34643;47.964;7.982;2023-10-08T22:26:43;97503.97;;;19.49;53.32
48390;BME280;34643;47.964;7.982;2023-10-08T22:31:45;97507.44;;;19.49;53.32
48390;BME280;34643;47.964;7.982;2023-10-08T22:36:49;97497.91;;;19.48;53.40
48390;BME280;34643;47.964;7.982;2023-10-08T22:42:19;97489.22;;;19.48;53.41
48390;BME280;34643;47.964;7.982;2023-10-08T22:47:21;97484.81;;;19.48;53.43
48390;BME280;34643;47.964;7.982;2023-10-08T22:52:21;97482.19;;;19.48;53.57
48390;BME280;34643;47.964;7.982;2023-10-08T22:57:22;97469.09;;;19.48;53.53
48390;BME280;34643;47.964;7.982;2023-10-08T23:02:23;97466.47;;;19.48;53.71
48390;BME280;34643;47.964;7.982;2023-10-08T23:07:27;97464.69;;;19.49;53.67
48390;BME280;34643;47.964;7.982;2023-10-08T23:12:27;97459.44;;;19.49;53.62
48390;BME280;34643;47.964;7.982;2023-10-08T23:17:29;97452.56;;;19.48;53.77
48390;BME280;34643;47.964;7.982;2023-10-08T23:22:29;97460.31;;;19.49;53.70
48390;BME280;34643;47.964;7.982;2023-10-08T23:27:30;97456.84;;;19.49;53.86
48390;BME280;34643;47.964;7.982;2023-10-08T23:32:32;97456.84;;;19.49;54.00
48390;BME280;34643;47.964;7.982;2023-10-08T23:37:32;97450.78;;;19.48;53.95
48390;BME280;34643;47.964;7.982;2023-10-08T23:42:39;97451.59;;;19.49;54.05
48390;BME280;34643;47.964;7.982;2023-10-08T23:47:44;97445.53;;;19.48;54.08
48390;BME280;34643;47.964;7.982;2023-10-08T23:52:46;97438.66;;;19.47;54.01
48390;BME280;34643;47.964;7.982;2023-10-08T23:57:47;97445.53;;;19.48;54.02
